createdAt,value
2022-08-09T00:00:44.454Z,100735.44
2022-08-09T00:04:10.960Z,100735.79
2022-08-09T00:07:12.507Z,100738.78
2022-08-09T00:10:17.991Z,100742.25
2022-08-09T00:13:24.695Z,100737.52
2022-08-09T00:16:38.411Z,100740.55
2022-08-09T00:19:42.305Z,100742.23
2022-08-09T00:22:51.116Z,100741.23
2022-08-09T00:25:54.903Z,100741.35
2022-08-09T00:28:59.205Z,100738.73
2022-08-09T00:32:03.304Z,100737.12
2022-08-09T00:35:07.094Z,100740.42
2022-08-09T00:39:02.852Z,100739.27
2022-08-09T00:44:13.996Z,100742.26
2022-08-09T00:45:35.192Z,100739.11
2022-08-09T00:48:38.493Z,100742.34
2022-08-09T00:51:54.597Z,100742.36
2022-08-09T00:55:00.958Z,100741.44
2022-08-09T00:58:31.925Z,100745.11
2022-08-09T01:01:44.887Z,100746.25
2022-08-09T01:05:13.878Z,100746.95
2022-08-09T01:08:30.149Z,100748.07
2022-08-09T01:11:53.141Z,100747.73
2022-08-09T01:15:16.620Z,100749.71
2022-08-09T01:18:30.494Z,100752.27
2022-08-09T01:21:50.958Z,100753.21
2022-08-09T01:25:12.596Z,100754.38
2022-08-09T01:28:17.074Z,100753.80
2022-08-09T01:32:29.188Z,100752.90
2022-08-09T01:34:53.881Z,100750.67
2022-08-09T01:38:08.291Z,100754.69
2022-08-09T01:41:25.691Z,100753.16
2022-08-09T01:44:30.838Z,100746.59
2022-08-09T01:47:44.811Z,100746.96
2022-08-09T01:50:54.794Z,100750.40
2022-08-09T01:54:00.474Z,100748.30
2022-08-09T01:57:12.198Z,100746.48
2022-08-09T02:00:35.279Z,100746.82
2022-08-09T02:03:43.090Z,100742.92
2022-08-09T02:07:06.147Z,100742.00
2022-08-09T02:10:29.846Z,100740.90
2022-08-09T02:13:37.245Z,100740.23
2022-08-09T02:17:00.092Z,100742.70
2022-08-09T02:20:08.972Z,100745.67
2022-08-09T02:23:23.938Z,100747.38
2022-08-09T02:26:32.439Z,100747.05
2022-08-09T02:29:44.412Z,100749.75
2022-08-09T02:32:48.920Z,100752.14
2022-08-09T02:36:02.838Z,100752.39
2022-08-09T02:39:19.792Z,100749.20
2022-08-09T02:42:31.442Z,100751.80
2022-08-09T02:45:40.968Z,100750.09
2022-08-09T02:48:47.299Z,100749.80
2022-08-09T02:51:59.085Z,100748.31
2022-08-09T02:55:20.255Z,100750.86
2022-08-09T02:58:35.388Z,100754.71
2022-08-09T03:01:42.813Z,100753.70
2022-08-09T03:04:50.771Z,100750.23
2022-08-09T03:07:55.606Z,100751.38
2022-08-09T03:11:01.705Z,100752.10
2022-08-09T03:14:05.978Z,100756.61
2022-08-09T03:17:16.544Z,100758.71
2022-08-09T03:20:24.560Z,100756.46
2022-08-09T03:23:33.437Z,100758.41
2022-08-09T03:26:45.054Z,100762.38
2022-08-09T03:29:57.717Z,100764.12
2022-08-09T03:33:18.574Z,100766.52
2022-08-09T03:36:27.049Z,100767.16
2022-08-09T03:39:38.071Z,100770.44
2022-08-09T03:42:43.057Z,100768.12
2022-08-09T03:46:09.841Z,100763.56
2022-08-09T03:49:12.001Z,100765.65
2022-08-09T03:52:22.503Z,100764.98
2022-08-09T03:55:35.963Z,100768.44
2022-08-09T03:58:45.097Z,100770.20
2022-08-09T04:01:50.935Z,100770.50
2022-08-09T04:04:55.953Z,100774.25
2022-08-09T04:07:59.131Z,100774.39
2022-08-09T04:11:03.433Z,100774.80
2022-08-09T04:14:53.255Z,100772.92
2022-08-09T04:17:32.402Z,100766.92
2022-08-09T04:20:36.500Z,100772.91
2022-08-09T04:23:39.469Z,100777.10
2022-08-09T04:26:42.759Z,100783.30
2022-08-09T04:29:49.716Z,100781.29
2022-08-09T04:32:54.175Z,100781.63
2022-08-09T04:35:57.396Z,100785.27
2022-08-09T04:39:04.051Z,100787.73
2022-08-09T04:42:09.328Z,100790.55
2022-08-09T04:45:12.765Z,100791.00
2022-08-09T04:48:16.146Z,100790.52
2022-08-09T04:51:19.114Z,100788.02
2022-08-09T04:54:23.315Z,100789.03
2022-08-09T04:57:54.139Z,100789.02
2022-08-09T05:00:50.543Z,100786.36
2022-08-09T05:03:56.866Z,100788.20
2022-08-09T05:07:01.921Z,100794.58
2022-08-09T05:10:05.601Z,100793.09
2022-08-09T05:13:08.632Z,100796.22
2022-08-09T05:16:15.016Z,100796.33
2022-08-09T05:19:24.418Z,100805.02
2022-08-09T05:22:36.154Z,100809.27
2022-08-09T05:25:52.394Z,100805.67
2022-08-09T05:28:55.368Z,100805.39
2022-08-09T05:32:02.837Z,100806.73
2022-08-09T05:35:09.602Z,100812.45
2022-08-09T05:38:12.679Z,100814.33
2022-08-09T05:41:25.262Z,100818.80
2022-08-09T05:44:32.251Z,100819.14
2022-08-09T05:47:36.074Z,100817.23
2022-08-09T05:51:14.179Z,100818.31
2022-08-09T05:54:17.959Z,100820.11
2022-08-09T05:57:25.025Z,100821.13
2022-08-09T06:00:44.911Z,100822.06
2022-08-09T06:03:58.055Z,100825.73
2022-08-09T06:07:04.451Z,100826.98
2022-08-09T06:10:08.195Z,100826.32
2022-08-09T06:13:20.723Z,100831.49
2022-08-09T06:16:24.035Z,100827.27
2022-08-09T06:19:27.460Z,100832.90
2022-08-09T06:22:31.320Z,100834.25
2022-08-09T06:25:35.282Z,100841.33
2022-08-09T06:28:38.235Z,100843.66
2022-08-09T06:32:08.675Z,100845.84
2022-08-09T06:35:06.314Z,100846.34
2022-08-09T06:38:10.077Z,100851.75
2022-08-09T06:41:19.065Z,100852.27
2022-08-09T06:44:26.623Z,100854.26
2022-08-09T06:47:39.428Z,100850.02
2022-08-09T06:50:48.196Z,100846.50
2022-08-09T06:53:51.077Z,100843.23
2022-08-09T06:56:56.322Z,100844.34
2022-08-09T07:00:49.991Z,100845.70
2022-08-09T07:03:28.150Z,100852.95
2022-08-09T07:06:53.456Z,100858.16
2022-08-09T07:10:29.352Z,100861.52
2022-08-09T07:13:45.306Z,100860.55
2022-08-09T07:16:58.411Z,100861.89
2022-08-09T07:20:02.239Z,100848.98
2022-08-09T07:23:19.057Z,100861.82
2022-08-09T07:26:23.329Z,100864.20
2022-08-09T07:29:27.528Z,100869.01
2022-08-09T07:32:42.460Z,100874.30
2022-08-09T07:35:54.174Z,100876.10
2022-08-09T07:39:01.047Z,100876.95
2022-08-09T07:42:06.487Z,100879.41
2022-08-09T07:45:22.796Z,100882.64
2022-08-09T07:48:35.193Z,100883.76
2022-08-09T07:52:04.683Z,100883.39
2022-08-09T07:55:09.667Z,100887.84
2022-08-09T07:58:14.438Z,100884.73
2022-08-09T08:01:21.572Z,100888.33
2022-08-09T08:04:37.367Z,100888.79
2022-08-09T08:08:44.047Z,100889.40
2022-08-09T08:12:11.321Z,100889.61
2022-08-09T08:14:27.382Z,100887.19
2022-08-09T08:17:52.172Z,100886.02
2022-08-09T08:20:55.130Z,100889.13
2022-08-09T08:24:00.922Z,100889.20
2022-08-09T08:27:04.757Z,100888.06
2022-08-09T08:30:20.045Z,100888.42
2022-08-09T08:33:49.668Z,100889.56
2022-08-09T08:37:01.285Z,100894.42
2022-08-09T08:40:14.317Z,100894.48
2022-08-09T08:43:27.160Z,100894.50
2022-08-09T08:46:59.644Z,100896.23
2022-08-09T08:50:04.428Z,100899.45
2022-08-09T08:53:15.767Z,100898.98
2022-08-09T08:56:28.401Z,100900.24
2022-08-09T08:59:46.548Z,100901.11
2022-08-09T09:02:52.839Z,100906.78
2022-08-09T09:05:58.367Z,100901.11
2022-08-09T09:09:21.029Z,100904.14
2022-08-09T09:12:35.518Z,100901.77
2022-08-09T09:15:39.223Z,100901.59
2022-08-09T09:18:48.807Z,100904.73
2022-08-09T09:22:15.994Z,100904.19
2022-08-09T09:26:01.355Z,100901.48
2022-08-09T09:29:11.032Z,100906.23
2022-08-09T09:32:35.482Z,100903.90
2022-08-09T09:36:01.947Z,100896.55
2022-08-09T09:39:10.250Z,100899.94
2022-08-09T09:42:29.687Z,100902.40
2022-08-09T09:45:57.231Z,100901.89
2022-08-09T09:49:19.170Z,100904.05
2022-08-09T09:52:56.308Z,100900.96
2022-08-09T09:56:05.367Z,100895.03
2022-08-09T09:59:10.001Z,100894.30
2022-08-09T10:02:14.367Z,100886.21
2022-08-09T10:05:21.679Z,100882.60
2022-08-09T10:08:30.179Z,100874.21
2022-08-09T10:12:00.949Z,100871.70
2022-08-09T10:15:06.566Z,100869.55
2022-08-09T10:18:20.376Z,100865.73
2022-08-09T10:21:25.394Z,100869.86
2022-08-09T10:24:35.663Z,100866.02
2022-08-09T10:27:56.321Z,100859.89
2022-08-09T10:34:32.679Z,100856.45
2022-08-09T10:37:38.415Z,100857.20
2022-08-09T10:40:50.046Z,100852.57
2022-08-09T10:43:59.500Z,100849.25
2022-08-09T10:48:16.189Z,100850.92
2022-08-09T10:51:10.263Z,100851.48
2022-08-09T10:54:14.783Z,100846.43
2022-08-09T10:57:17.776Z,100840.75
2022-08-09T11:00:41.812Z,100833.98
2022-08-09T11:04:27.710Z,100829.69
2022-08-09T11:07:56.644Z,100830.94
2022-08-09T11:10:59.776Z,100838.70
2022-08-09T11:14:31.766Z,100832.48
2022-08-09T11:17:45.923Z,100836.63
2022-08-09T11:20:49.961Z,100832.55
2022-08-09T11:23:59.966Z,100836.99
2022-08-09T11:28:02.872Z,100835.11
2022-08-09T11:31:43.374Z,100833.20
2022-08-09T11:34:53.719Z,100836.16
2022-08-09T11:38:32.688Z,100841.79
2022-08-09T11:41:38.493Z,100840.24
2022-08-09T11:44:45.684Z,100839.24
2022-08-09T11:47:54.634Z,100841.04
2022-08-09T11:52:53.852Z,100835.77
2022-08-09T11:54:28.668Z,100836.73
2022-08-09T11:57:47.821Z,100832.83
2022-08-09T12:01:37.279Z,100830.71
2022-08-09T12:04:37.379Z,100832.48
2022-08-09T12:07:42.559Z,100827.76
2022-08-09T12:10:49.650Z,100825.40
2022-08-09T12:14:10.258Z,100826.88
2022-08-09T12:17:28.189Z,100822.14
2022-08-09T12:20:42.397Z,100813.77
2022-08-09T12:23:56.539Z,100818.23
2022-08-09T12:29:15.497Z,100812.58
2022-08-09T12:30:44.330Z,100809.76
2022-08-09T12:33:58.642Z,100806.02
2022-08-09T12:37:24.173Z,100802.81
2022-08-09T12:40:30.647Z,100803.41
2022-08-09T12:44:05.469Z,100805.12
2022-08-09T12:47:01.096Z,100809.41
2022-08-09T12:50:19.706Z,100803.58
2022-08-09T12:53:44.699Z,100802.69
2022-08-09T12:56:54.153Z,100802.27
2022-08-09T13:00:12.466Z,100800.58
2022-08-09T13:03:24.435Z,100798.34
2022-08-09T13:06:35.721Z,100797.22
2022-08-09T13:09:41.028Z,100795.44
2022-08-09T13:13:09.507Z,100791.73
2022-08-09T13:16:17.539Z,100792.66
2022-08-09T13:20:07.088Z,100794.58
2022-08-09T13:23:00.960Z,100797.56
2022-08-09T13:26:05.659Z,100790.27
2022-08-09T13:29:18.044Z,100791.65
2022-08-09T13:32:28.736Z,100794.98
2022-08-09T13:35:34.478Z,100791.29
2022-08-09T13:38:54.927Z,100793.95
2022-08-09T13:42:11.906Z,100796.95
2022-08-09T13:45:16.920Z,100799.56
2022-08-09T13:48:20.357Z,100795.52
2022-08-09T13:51:24.748Z,100793.70
2022-08-09T13:54:30.490Z,100793.58
2022-08-09T13:57:42.922Z,100792.02
2022-08-09T14:00:49.966Z,100788.41
2022-08-09T14:04:02.225Z,100788.14
2022-08-09T14:07:07.697Z,100787.73
2022-08-09T14:10:17.179Z,100793.69
2022-08-09T14:14:22.412Z,100796.33
2022-08-09T14:16:56.937Z,100795.85
2022-08-09T14:20:02.386Z,100798.39
2022-08-09T14:23:07.180Z,100796.60
2022-08-09T14:26:11.191Z,100796.51
2022-08-09T14:29:25.458Z,100796.55
2022-08-09T14:32:40.767Z,100788.76
2022-08-09T14:35:52.965Z,100787.89
2022-08-09T14:38:57.344Z,100787.18
2022-08-09T14:42:00.852Z,100782.94
2022-08-09T14:46:40.279Z,100783.30
2022-08-09T14:48:33.278Z,100782.43
2022-08-09T14:51:36.016Z,100781.27
2022-08-09T14:54:45.582Z,100773.08
2022-08-09T14:57:49.650Z,100785.02
2022-08-09T15:00:52.908Z,100778.29
2022-08-09T15:04:00.781Z,100774.36
2022-08-09T15:07:04.695Z,100776.14
2022-08-09T15:10:14.242Z,100775.24
2022-08-09T15:13:19.030Z,100774.08
2022-08-09T15:16:21.885Z,100774.61
2022-08-09T15:19:26.149Z,100773.59
2022-08-09T15:22:29.288Z,100771.93
2022-08-09T15:25:41.169Z,100774.81
2022-08-09T15:28:44.716Z,100775.84
2022-08-09T15:31:58.018Z,100776.66
2022-08-09T15:35:01.458Z,100777.87
2022-08-09T15:38:11.056Z,100776.23
2022-08-09T15:41:21.985Z,100777.11
2022-08-09T15:44:25.899Z,100768.36
2022-08-09T15:47:51.478Z,100773.63
2022-08-09T15:50:55.924Z,100772.86
2022-08-09T15:54:03.800Z,100768.42
2022-08-09T15:57:11.315Z,100767.16
2022-08-09T16:00:25.750Z,100768.05
2022-08-09T16:03:38.171Z,100764.83
2022-08-09T16:06:50.568Z,100769.41
2022-08-09T16:10:02.158Z,100766.51
2022-08-09T16:13:21.067Z,100766.70
2022-08-09T16:16:32.958Z,100763.37
2022-08-09T16:19:49.355Z,100760.72
2022-08-09T16:23:01.378Z,100758.36
2022-08-09T16:26:05.206Z,100753.10
2022-08-09T16:29:37.969Z,100748.38
2022-08-09T16:33:04.241Z,100751.05
2022-08-09T16:36:11.781Z,100745.88
2022-08-09T16:39:17.738Z,100746.81
2022-08-09T16:42:34.158Z,100745.84
2022-08-09T16:45:44.304Z,100746.86
2022-08-09T16:48:53.208Z,100750.11
2022-08-09T16:51:58.684Z,100746.97
2022-08-09T16:55:01.773Z,100752.71
2022-08-09T16:58:08.852Z,100755.16
2022-08-09T17:01:13.356Z,100752.48
2022-08-09T17:04:28.431Z,100755.98
2022-08-09T17:08:45.319Z,100758.77
2022-08-09T17:10:54.555Z,100761.56
2022-08-09T17:14:01.228Z,100758.09
2022-08-09T17:17:17.274Z,100759.77
2022-08-09T17:20:37.374Z,100762.15
2022-08-09T17:24:21.066Z,100767.02
2022-08-09T17:27:06.765Z,100765.34
2022-08-09T17:30:19.839Z,100768.86
2022-08-09T17:33:23.508Z,100764.34
2022-08-09T17:36:26.845Z,100766.83
2022-08-09T17:39:48.501Z,100767.92
2022-08-09T17:42:59.548Z,100770.80
2022-08-09T17:46:14.082Z,100773.19
2022-08-09T17:49:21.654Z,100774.02
2022-08-09T17:52:26.973Z,100777.52
2022-08-09T17:55:47.432Z,100776.96
2022-08-09T17:58:55.296Z,100773.20
2022-08-09T18:02:12.765Z,100778.81
2022-08-09T18:05:22.735Z,100778.02
2022-08-09T18:08:32.498Z,100779.30
2022-08-09T18:12:05.205Z,100786.02
2022-08-09T18:16:05.380Z,100789.93
2022-08-09T18:20:54.500Z,100788.51
2022-08-09T18:22:33.735Z,100788.61
2022-08-09T18:25:52.478Z,100792.06
2022-08-09T18:30:38.837Z,100787.70
2022-08-09T18:32:25.586Z,100790.41
2022-08-09T18:35:58.255Z,100785.23
2022-08-09T18:39:00.871Z,100795.72
2022-08-09T18:42:08.152Z,100801.48
2022-08-09T18:46:44.979Z,100803.11
2022-08-09T18:48:37.029Z,100803.87
2022-08-09T18:51:54.965Z,100807.45
2022-08-09T18:55:01.359Z,100807.79
2022-08-09T18:58:05.286Z,100811.47
2022-08-09T19:01:10.838Z,100810.83
2022-08-09T19:04:16.211Z,100816.09
2022-08-09T19:08:03.813Z,100820.13
2022-08-09T19:11:07.425Z,100817.36
2022-08-09T19:14:16.055Z,100819.23
2022-08-09T19:17:31.190Z,100823.66
2022-08-09T19:20:38.844Z,100821.20
2022-08-09T19:24:35.889Z,100821.19
2022-08-09T19:27:08.747Z,100824.43
2022-08-09T19:30:24.744Z,100823.77
2022-08-09T19:33:32.803Z,100823.98
2022-08-09T19:36:37.311Z,100822.67
2022-08-09T19:40:03.810Z,100827.05
2022-08-09T19:43:16.278Z,100827.65
2022-08-09T19:46:35.553Z,100834.13
2022-08-09T19:50:09.775Z,100837.22
2022-08-09T19:53:06.260Z,100843.42
2022-08-09T19:56:15.721Z,100839.74
2022-08-09T19:59:57.416Z,100839.38
2022-08-09T20:04:23.812Z,100840.16
2022-08-09T20:06:22.423Z,100839.02
2022-08-09T20:09:44.880Z,100835.44
2022-08-09T20:12:49.729Z,100845.77
2022-08-09T20:16:34.844Z,100846.04
2022-08-09T20:19:48.669Z,100847.23
2022-08-09T20:22:57.511Z,100851.58
2022-08-09T20:26:03.492Z,100853.15
2022-08-09T20:29:18.935Z,100856.18
2022-08-09T20:32:33.881Z,100853.98
2022-08-09T20:35:37.544Z,100853.02
2022-08-09T20:39:18.712Z,100855.98
2022-08-09T20:42:06.211Z,100856.59
2022-08-09T20:48:37.663Z,100853.84
2022-08-09T20:51:42.238Z,100852.02
2022-08-09T20:54:52.598Z,100849.86
2022-08-09T20:58:05.399Z,100850.14
2022-08-09T21:01:34.590Z,100852.30
2022-08-09T21:05:52.669Z,100854.48
2022-08-09T21:08:08.012Z,100850.54
2022-08-09T21:14:40.167Z,100855.81
2022-08-09T21:18:23.814Z,100858.05
2022-08-09T21:21:17.380Z,100866.33
2022-08-09T21:24:28.453Z,100866.94
2022-08-09T21:27:52.284Z,100870.11
2022-08-09T21:30:59.335Z,100868.08
2022-08-09T21:34:02.716Z,100874.20
2022-08-09T21:37:18.292Z,100868.46
2022-08-09T21:40:30.469Z,100871.80
2022-08-09T21:43:56.732Z,100876.91
2022-08-09T21:46:57.439Z,100878.67
2022-08-09T21:50:01.335Z,100879.96
2022-08-09T21:53:15.698Z,100879.73
2022-08-09T21:56:34.064Z,100874.30
2022-08-09T21:59:48.016Z,100875.07
2022-08-09T22:02:58.978Z,100877.98
2022-08-09T22:06:03.777Z,100883.00
2022-08-09T22:09:11.030Z,100879.89
2022-08-09T22:12:24.511Z,100879.70
2022-08-09T22:15:34.972Z,100878.66
2022-08-09T22:18:53.640Z,100877.59
2022-08-09T22:21:57.832Z,100874.77
2022-08-09T22:26:06.845Z,100872.92
2022-08-09T22:28:32.384Z,100876.52
2022-08-09T22:31:37.584Z,100874.98
2022-08-09T22:34:41.753Z,100873.56
2022-08-09T22:37:44.729Z,100869.21
2022-08-09T22:40:49.175Z,100873.36
2022-08-09T22:44:04.256Z,100875.45
2022-08-09T22:48:11.472Z,100872.92
2022-08-09T22:50:32.532Z,100872.34
2022-08-09T22:53:58.647Z,100871.41
2022-08-09T22:56:58.837Z,100874.36
2022-08-09T23:00:01.918Z,100871.00
2022-08-09T23:03:12.621Z,100871.08
2022-08-09T23:06:29.868Z,100867.48
2022-08-09T23:09:40.307Z,100867.75
2022-08-09T23:12:44.305Z,100866.33
2022-08-09T23:16:02.957Z,100861.73
2022-08-09T23:19:07.743Z,100861.17
2022-08-09T23:22:10.717Z,100864.59
2022-08-09T23:25:13.688Z,100864.77
2022-08-09T23:28:18.098Z,100861.58
2022-08-09T23:31:21.072Z,100860.45
2022-08-09T23:34:24.248Z,100862.98
2022-08-09T23:37:30.114Z,100864.72
2022-08-09T23:40:33.463Z,100863.77
2022-08-09T23:43:36.437Z,100866.87
2022-08-09T23:46:39.413Z,100860.96
2022-08-09T23:49:42.687Z,100865.37
2022-08-09T23:52:45.661Z,100866.66
2022-08-09T23:55:55.674Z,100868.52
2022-08-09T23:59:00.200Z,100863.58
